Bridgeport Valley, California Weather observations

Data are for 10 minute period ending at time listed.
 Day   Time   Solar   Ave.   Ave.  Ave.  Vector  Max.   Baro.   Total    
  of    of     Rad.   Air    Rel.  Wind   Wind   Wind  Press.  Precip.   
Year   Day            Temp.  Hum.  Speed  Dir.   Gust                    
2014   (PST)  Kw/m2    F      %     mph   deg.    mph    mb.     in.     
-------------------------------------------------------------------------
 273   12:30   0.83   69.2    18    4.8   262    10.1   799.3    0.00 
 273   12:40   0.83   69.2    20    7.6   238    17.1   799.1    0.00 
 273   12:50   0.82   68.9    20   11.5   223    19.1   798.9    0.00 
 273   13:00   0.81   68.8    20   15.9   222    21.9   798.6    0.00 
 273   13:10   0.79   68.7    21   17.2   225    23.5   798.5    0.00 
 273   13:20   0.78   68.3    21   17.9   227    23.1   798.5    0.00 
 273   13:30   0.76   68.5    22   17.6   231    25.4   798.4    0.00 
 273   13:40   0.74   68.1    22   18.3   228    23.8   798.4    0.00 
 273   13:50   0.72   67.8    22   18.2   231    25.7   798.3    0.00 
 273   14:00   0.70   67.7    22   18.5   226    26.0   798.3    0.00 
 273   14:10   0.67   67.7    22   18.1   222    25.0   798.3    0.00 
 273   14:20   0.65   67.7    23   17.0   226    23.9   798.3    0.00 
 273   14:30   0.62   67.3    23   17.5   229    23.4   798.4    0.00 
 273   14:40   0.59   67.6    23   15.6   225    23.1   798.3    0.00 
 273   14:50   0.56   67.2    24   16.1   220    22.1   798.2    0.00 
 273   15:00   0.54   67.0    24   15.3   222    21.9   798.2    0.00 
 273   15:10   0.50   67.0    24   14.8   226    20.6   798.3    0.00 
 273   15:20   0.47   66.5    24   15.7   230    20.5   798.3    0.00 
 273   15:30   0.44   66.4    24   13.9   233    21.6   798.4    0.00 
 273   15:40   0.41   65.9    25   14.0   232    20.4   798.4    0.00 
 273   15:50   0.37   65.7    25   13.4   237    17.8   798.5    0.00 
 273   16:00   0.33   65.5    25   12.1   237    18.9   798.5    0.00 
 273   16:10   0.30   64.8    26   13.6   238    20.4   798.4    0.00 
 273   16:20   0.26   64.1    27   14.0   226    19.0   798.4    0.00 
 273   16:30   0.23   63.4    28   14.0   230    19.8   798.4    0.00 
 273   16:40   0.20   62.9    28   11.6   235    16.4   798.4    0.00 
 273   16:50   0.16   61.9    30   11.4   233    15.6   798.5    0.00 
 273   17:00   0.13   61.0    31    9.2   235    13.6   798.6    0.00 
 273   17:10   0.10   59.4    34    6.3   245    10.6   798.6    0.00 
 273   17:20   0.04   57.5    39    5.7   348    13.6   798.9    0.00 
 273   17:30   0.01   57.4    48    9.1    11    16.2   798.9    0.00 
 273   17:40   0.01   55.0    55    9.6    19    13.5   799.1    0.00 
 273   17:50   0.01   54.5    56    8.0    12    13.6   799.3    0.00 
 273   18:00   0.00   53.5    58    8.9    28    12.0   799.3    0.00 
 273   18:10   0.00   53.5    58    8.4    29    12.1   799.4    0.00 
 273   18:20   0.00   52.7    60    8.3    37    12.9   799.4    0.00 
 273   18:30   0.00   53.4    58    8.4    23    12.0   799.6    0.00 
 273   18:40   0.00   53.2    58    7.2    23    10.1   799.7    0.00 
 273   18:50   0.00   53.0    58    8.3    26    14.2   799.8    0.00 
 273   19:00   0.00   53.5    57    7.3    25    11.2   799.9    0.00 
 273   19:10   0.00   51.4    62    7.1    31     9.6   800.0    0.00 
 273   19:20   0.00   53.0    61    7.9    17    17.3   800.1    0.00 
 273   19:30   0.00   54.0    59    9.7    18    19.8   800.1    0.00 
 273   19:40   0.00   53.8    59    8.2    23    15.6   800.2    0.00 
 273   19:50   0.00   54.0    58    8.9    13    14.8   800.4    0.00 
 273   20:00   0.00   53.8    59    9.7    22    17.9   800.6    0.00 
 273   20:10   0.00   52.9    61    7.8    19    17.0   800.7    0.00 
 273   20:20   0.00   52.3    61   10.1    29    16.4   800.8    0.00 
 273   20:30   0.00   51.8    60    9.2    38    14.7   800.9    0.00 
 273   20:40   0.00   51.2    60    8.7    42    11.9   801.0    0.00 
 273   20:50   0.00   50.4    62    6.4    37    10.2   801.0    0.00 
 273   21:00   0.00   50.1    63    6.1    39     8.8   801.0    0.00 
 273   21:10   0.00   50.8    59    7.1    42    10.4   801.1    0.00 
 273   21:20   0.00   50.7    58    5.4    33    10.4   801.2    0.00 
 273   21:30   0.00   49.2    61    3.3    15     5.8   801.2    0.00 
 273   21:40   0.00   48.3    62    3.5    37     5.8   801.3    0.00 
 273   21:50   0.00   47.1    65    2.9    35     4.2   801.4    0.00 
 273   22:00   0.00   47.0    66    4.2    48     6.7   801.4    0.00 
 273   22:10   0.00   47.4    66    4.4    25     6.1   801.4    0.00 
 273   22:20   0.00   47.5    66    4.2    15     6.3   801.5    0.00 
 273   22:30   0.00   47.6    65    4.8    21     6.9   801.6    0.00 
 273   22:40   0.00   47.7    64    6.5    30     9.8   801.7    0.00 
 273   22:50   0.00   48.2    63    9.3    35    16.5   801.7    0.00 
 273   23:00   0.00   48.2    62    9.7    46    13.9   801.8    0.00 
 273   23:10   0.00   47.1    64    6.7    31    10.9   801.8    0.00 
 273   23:20   0.00   45.7    66    6.6    43     9.0   801.9    0.00 
 273   23:30   0.00   45.8    65    7.6    52    11.8   801.9    0.00 
 273   23:40   0.00   46.3    62    8.7    46    13.2   802.0    0.00 
 273   23:50   0.00   45.6    60    9.6    42    12.8   801.9    0.00 
 274    0:00   0.00   45.2    60   10.7    41    15.2   801.9    0.00 
 274    0:10   0.00   45.0    60   10.4    39    14.3   801.9    0.00 
 274    0:20   0.00   44.9    60   10.3    42    13.0   801.9    0.00 
 274    0:30   0.00   44.5    60    9.9    48    14.5   802.0    0.00 
 274    0:40   0.00   43.9    61   10.3    45    14.0   802.1    0.00 
 274    0:50   0.00   43.6    60    9.8    44    13.7   802.3    0.00 
 274    1:00   0.00   43.3    58    9.3    51    12.5   802.5    0.00 
 274    1:10   0.00   42.4    59    8.2    46    11.1   802.4    0.00 
 274    1:20   0.00   41.0    60    7.5    44    10.1   802.4    0.00 
 274    1:30   0.00   40.0    61    6.6    40     8.7   802.4    0.00 
 274    1:40   0.00   38.9    62    2.9    40     5.9   802.4    0.00 
 274    1:50   0.00   36.1    69    4.7   246     8.3   802.3    0.00 
 274    2:00   0.00   37.7    65    3.9   253     8.0   802.1    0.00 
 274    2:10   0.00   38.8    61    2.5   250     4.7   802.1    0.00 
 274    2:20   0.00   39.5    58    0.9   238     2.2   802.1    0.00 
 274    2:30   0.00   37.8    62    1.1   295     2.6   802.1    0.00 
 274    2:40   0.00   38.3    60    2.7    37     4.1   802.2    0.00 
 274    2:50   0.00   35.1    67    2.3   343     3.9   802.2    0.00 
 274    3:00   0.00   31.0    75    2.0    74     4.0   802.2    0.00 
 274    3:10   0.00   30.6    79    1.8   218     4.5   802.2    0.00 
 274    3:20   0.00   31.7    77    2.1   257     4.2   802.3    0.00 
 274    3:30   0.00   30.6    80    4.3   278     5.8   802.4    0.00 
 274    3:40   0.00   31.0    78    5.2   278     6.7   802.6    0.00 
 274    3:50   0.00   26.4    85    4.4   243     5.9   802.6    0.00 
 274    4:00   0.00   25.1    88    2.7   192     5.6   802.7    0.00 
 274    4:10   0.00   25.6    89    3.4   222     5.0   802.8    0.00 
 274    4:20   0.00   26.1    88    2.4   227     3.1   802.9    0.00 
 274    4:30   0.00   26.3    86    2.9   188     4.3   802.9    0.00 
 274    4:40   0.00   26.1    86    2.1   186     3.3   803.1    0.00 
 274    4:50   0.00   26.4    85    1.7   163     2.6   803.2    0.00 
 274    5:00   0.00   26.3    86    1.5   250     2.3   803.4    0.00 
 274    5:10   0.00   26.5    85    1.7   250     3.3   803.5    0.00 
 274    5:20   0.00   28.0    83    0.6   247     1.9   803.6    0.00 
 274    5:30   0.00   27.7    82    0.7   246     1.8   803.7    0.00 
 274    5:40   0.00   27.5    82    2.6   198     5.3   803.7    0.00 
 274    5:50   0.00   25.8    84    3.7   174     4.9   803.9    0.00 
 274    6:00   0.01   24.7    87    1.7   210     2.9   804.0    0.00 
 274    6:10   0.01   24.8    88    1.1   258     3.5   804.1    0.00 
 274    6:20   0.04   24.8    88    0.3   337     1.8   804.3    0.00 
 274    6:30   0.08   28.2    83    0.0   135     0.9   804.4    0.00 
 274    6:40   0.11   30.0    78    1.0   239     1.7   804.5    0.00 
 274    6:50   0.14   31.1    81    2.0   203     3.1   804.5    0.00 
 274    7:00   0.17   33.9    76    2.5   178     3.5   804.3    0.00 
 274    7:10   0.21   36.1    73    2.7   166     4.1   804.3    0.00 
 274    7:20   0.24   37.5    69    2.6   161     4.3   804.3    0.00 
 274    7:30   0.28   39.1    66    2.2   140     3.4   804.3    0.00 
 274    7:40   0.32   40.9    63    1.5   146     2.7   804.4    0.00 
 274    7:50   0.35   42.9    58    1.0    86     2.4   804.5    0.00 
 274    8:00   0.39   44.4    53    1.4   257     3.5   804.7    0.00 
 274    8:10   0.42   43.2    54    1.5   261     2.9   804.8    0.00 
 274    8:20   0.46   44.8    51    1.5   251     4.2   804.9    0.00 
 274    8:30   0.49   45.2    49    2.0    56     3.9   805.0    0.00 
 274    8:40   0.53   46.7    46    2.0    48     5.0   805.0    0.00 
 274    8:50   0.56   46.4    47    2.9   358     6.1   805.0    0.00 
 274    9:00   0.59   47.5    44    1.3    55     5.4   805.1    0.00 
 274    9:10   0.62   47.7    42    3.0    16     8.1   805.2    0.00 
 274    9:20   0.65   48.3    43    3.9     0     7.6   805.2    0.00 
 274    9:30   0.67   48.3    40    3.8    35     6.8   805.3    0.00 
 274    9:40   0.70   49.4    39    2.3   327     4.7   805.3    0.00 
 274    9:50   0.72   49.5    40    3.5   281     6.3   805.3    0.00 
 274   10:00   0.74   49.5    39    3.5   248     5.9   805.3    0.00 
 274   10:10   0.76   50.7    39    2.6   305     5.3   805.3    0.00 
 274   10:20   0.78   50.6    39    3.4   340     7.8   805.2    0.00 
 274   10:30   0.80   51.1    38    3.4    46     7.4   805.1    0.00 
 274   10:40   0.81   52.8    36    1.3   119     4.2   805.0    0.00 
 274   10:50   0.83   52.8    36    2.8   219     5.8   804.9    0.00 
 274   11:00   0.84   53.3    36    3.0     2     6.1   804.8    0.00 
 274   11:10   0.85   53.7    35    2.7    26     5.7   804.7    0.00 
 274   11:20   0.86   54.4    32    1.5    60     4.5   804.6    0.00 
 274   11:30   0.86   55.0    31    2.5   178     5.8   804.5    0.00 
 274   11:40   0.87   55.6    31    2.3   229     5.8   804.4    0.00 
 274   11:50   0.87   56.0    29    2.7    28     6.2   804.4    0.00 
 274   12:00   0.87   56.9    27    2.6    85     6.6   804.3    0.00 
 274   12:10   0.87   57.7    25    2.8    67     6.4   804.2    0.00 
 274   12:20   0.86   57.9    20    2.8    85     5.8   804.1    0.00 

Return to Bridgeport Valley graphs page.


Western Regional Climate Center,wrcc@dri.edu